createdAt,value
2023-12-12T00:01:09.548Z,4.52
2023-12-12T00:03:36.615Z,4.59
2023-12-12T00:06:03.730Z,4.57
2023-12-12T00:08:30.702Z,4.62
2023-12-12T00:10:57.617Z,4.34
2023-12-12T00:13:24.594Z,4.48
2023-12-12T00:15:51.588Z,4.66
2023-12-12T00:18:18.602Z,4.84
2023-12-12T00:20:46.177Z,4.82
2023-12-12T00:23:13.103Z,4.95
2023-12-12T00:25:40.058Z,5.00
2023-12-12T00:28:07.113Z,5.04
2023-12-12T00:30:34.436Z,4.76
2023-12-12T00:33:01.454Z,5.00
2023-12-12T00:35:28.501Z,5.08
2023-12-12T00:37:55.416Z,5.16
2023-12-12T00:40:22.415Z,5.01
2023-12-12T00:42:49.528Z,5.01
2023-12-12T00:45:17.076Z,4.50
2023-12-12T00:47:44.141Z,4.71
2023-12-12T00:50:11.396Z,4.56
2023-12-12T00:52:38.460Z,4.64
2023-12-12T00:55:05.758Z,3.92
2023-12-12T00:57:33.002Z,3.39
2023-12-12T01:00:00.355Z,3.94
2023-12-12T01:02:27.370Z,4.25
2023-12-12T01:04:54.686Z,3.76
2023-12-12T01:07:21.835Z,3.26
2023-12-12T01:09:48.963Z,3.00
2023-12-12T01:12:15.898Z,3.28
2023-12-12T01:14:42.854Z,3.18
2023-12-12T01:17:09.893Z,3.31
2023-12-12T01:19:36.849Z,3.63
2023-12-12T01:22:03.887Z,3.75
2023-12-12T01:24:31.435Z,3.74
2023-12-12T01:26:58.356Z,3.56
2023-12-12T01:29:25.342Z,3.36
2023-12-12T01:31:52.399Z,3.63
2023-12-12T01:34:19.518Z,3.78
2023-12-12T01:36:47.080Z,3.84
2023-12-12T01:39:14.039Z,3.99
2023-12-12T01:41:40.951Z,4.57
2023-12-12T01:44:07.954Z,4.24
2023-12-12T01:46:36.693Z,3.65
2023-12-12T01:49:03.954Z,3.61
2023-12-12T01:51:31.187Z,3.84
2023-12-12T01:53:59.064Z,3.82
2023-12-12T01:56:26.408Z,3.88
2023-12-12T01:58:54.516Z,3.80
2023-12-12T02:01:22.302Z,3.90
2023-12-12T02:03:50.851Z,3.91
2023-12-12T02:06:23.255Z,3.65
2023-12-12T02:08:51.078Z,3.65
2023-12-12T02:11:18.229Z,3.81
2023-12-12T02:13:45.320Z,3.94
2023-12-12T02:16:13.534Z,3.90
2023-12-12T02:18:40.734Z,4.04
2023-12-12T02:21:07.912Z,4.06
2023-12-12T02:23:34.848Z,4.11
2023-12-12T02:26:03.164Z,4.25
2023-12-12T02:28:30.605Z,4.22
2023-12-12T02:30:59.612Z,4.10
2023-12-12T02:33:26.711Z,3.95
2023-12-12T02:35:53.690Z,3.87
2023-12-12T02:38:20.659Z,3.84
2023-12-12T02:40:47.559Z,3.93
2023-12-12T02:43:14.595Z,3.99
2023-12-12T02:45:41.620Z,4.01
2023-12-12T02:48:08.664Z,3.92
2023-12-12T02:50:35.679Z,3.81
2023-12-12T02:53:02.891Z,3.76
2023-12-12T02:55:29.935Z,3.76
2023-12-12T02:57:57.046Z,3.72
2023-12-12T03:00:24.215Z,3.77
2023-12-12T03:02:51.199Z,3.61
2023-12-12T03:05:18.239Z,3.54
2023-12-12T03:07:45.224Z,3.44
2023-12-12T03:10:12.289Z,3.05
2023-12-12T03:12:39.348Z,2.84
2023-12-12T03:15:06.510Z,2.75
2023-12-12T03:17:33.757Z,2.62
2023-12-12T03:20:01.123Z,2.42
2023-12-12T03:22:28.277Z,2.26
2023-12-12T03:24:55.427Z,2.44
2023-12-12T03:27:22.330Z,2.49
2023-12-12T03:29:49.305Z,2.50
2023-12-12T03:32:16.242Z,2.56
2023-12-12T03:34:43.296Z,2.69
2023-12-12T03:37:10.389Z,2.77
2023-12-12T03:39:38.724Z,2.79
2023-12-12T03:42:05.801Z,2.91
2023-12-12T03:44:32.691Z,2.88
2023-12-12T03:46:59.641Z,3.10
2023-12-12T03:49:26.725Z,3.13
2023-12-12T03:51:53.669Z,2.65
2023-12-12T03:54:20.610Z,2.55
2023-12-12T03:56:47.546Z,2.45
2023-12-12T03:59:14.435Z,2.52
2023-12-12T04:01:41.569Z,2.71
2023-12-12T04:04:08.592Z,3.00
2023-12-12T04:06:35.589Z,3.10
2023-12-12T04:09:02.501Z,3.04
2023-12-12T04:11:29.448Z,3.03
2023-12-12T04:13:56.758Z,3.06
2023-12-12T04:16:23.665Z,3.41
2023-12-12T04:18:50.634Z,3.53
2023-12-12T04:21:17.602Z,2.98
2023-12-12T04:23:44.681Z,2.77
2023-12-12T04:26:12.253Z,3.06
2023-12-12T04:28:39.263Z,2.99
2023-12-12T04:31:06.332Z,2.97
2023-12-12T04:33:33.315Z,3.22
2023-12-12T04:36:00.673Z,3.02
2023-12-12T04:38:27.624Z,2.81
2023-12-12T04:40:54.736Z,2.85
2023-12-12T04:43:21.692Z,2.75
2023-12-12T04:45:48.652Z,2.81
2023-12-12T04:48:16.540Z,3.09
2023-12-12T04:50:43.613Z,3.15
2023-12-12T04:53:10.534Z,3.03
2023-12-12T04:55:37.582Z,3.17
2023-12-12T04:58:04.842Z,3.08
2023-12-12T05:00:31.870Z,2.89
2023-12-12T05:02:58.957Z,3.08
2023-12-12T05:05:25.938Z,3.22
2023-12-12T05:07:53.238Z,3.28
2023-12-12T05:10:20.359Z,3.29
2023-12-12T05:12:47.418Z,3.28
2023-12-12T05:15:14.400Z,3.33
2023-12-12T05:17:41.626Z,3.06
2023-12-12T05:20:11.099Z,2.92
2023-12-12T05:22:38.268Z,3.00
2023-12-12T05:25:06.496Z,2.95
2023-12-12T05:27:33.794Z,3.10
2023-12-12T05:30:00.904Z,3.34
2023-12-12T05:32:27.993Z,3.42
2023-12-12T05:34:55.109Z,3.83
2023-12-12T05:37:22.225Z,4.03
2023-12-12T05:39:49.373Z,3.66
2023-12-12T05:42:16.379Z,3.78
2023-12-12T05:44:43.269Z,3.79
2023-12-12T05:47:10.795Z,3.73
2023-12-12T05:49:38.120Z,3.96
2023-12-12T05:52:05.736Z,4.10
2023-12-12T05:54:32.765Z,4.39
2023-12-12T05:57:00.671Z,4.77
2023-12-12T05:59:27.651Z,5.31
2023-12-12T06:01:54.725Z,5.54
2023-12-12T06:04:21.924Z,5.73
2023-12-12T06:06:49.013Z,5.96
2023-12-12T06:09:18.417Z,6.07
2023-12-12T06:11:45.465Z,5.56
2023-12-12T06:14:13.539Z,5.27
2023-12-12T06:16:40.670Z,5.32
2023-12-12T06:19:07.907Z,5.30
2023-12-12T06:21:35.105Z,5.16
2023-12-12T06:24:03.675Z,5.05
2023-12-12T06:26:31.428Z,5.06
2023-12-12T06:28:58.523Z,5.56
2023-12-12T06:31:25.490Z,5.71
2023-12-12T06:33:53.312Z,6.25
2023-12-12T06:36:20.680Z,6.26
2023-12-12T06:38:47.671Z,6.34
2023-12-12T06:41:14.708Z,5.82
2023-12-12T06:43:41.932Z,5.73
2023-12-12T06:46:09.512Z,6.04
2023-12-12T06:48:38.476Z,6.17
2023-12-12T06:51:06.101Z,6.53
2023-12-12T06:53:33.393Z,6.80
2023-12-12T06:56:00.591Z,7.02
2023-12-12T06:58:27.584Z,6.43
2023-12-12T07:00:54.692Z,6.12
2023-12-12T07:03:23.257Z,6.01
2023-12-12T07:05:54.201Z,5.72
2023-12-12T07:08:21.338Z,5.75
2023-12-12T07:10:48.990Z,5.87
2023-12-12T07:13:16.094Z,6.56
2023-12-12T07:15:43.085Z,6.38
2023-12-12T07:18:12.368Z,6.10
2023-12-12T07:20:39.726Z,6.18
2023-12-12T07:23:06.793Z,6.19
2023-12-12T07:25:34.017Z,6.16
2023-12-12T07:28:01.243Z,6.06
2023-12-12T07:30:30.915Z,6.26
2023-12-12T07:32:58.086Z,6.29
2023-12-12T07:35:25.617Z,6.29
2023-12-12T07:37:52.578Z,6.44
2023-12-12T07:40:19.721Z,7.01
2023-12-12T07:42:50.132Z,6.86
2023-12-12T07:45:17.134Z,6.78
2023-12-12T07:47:44.795Z,7.19
2023-12-12T07:50:12.127Z,7.52
2023-12-12T07:52:39.601Z,8.10
2023-12-12T07:55:07.454Z,8.32
2023-12-12T07:57:34.865Z,8.47
2023-12-12T08:00:02.114Z,8.48
2023-12-12T08:02:29.038Z,8.48
2023-12-12T08:04:56.207Z,8.52
2023-12-12T08:07:24.322Z,8.22
2023-12-12T08:09:51.514Z,8.42
2023-12-12T08:12:18.615Z,8.40
2023-12-12T08:14:47.530Z,8.41
2023-12-12T08:17:16.174Z,8.41
2023-12-12T08:19:43.535Z,7.77
2023-12-12T08:22:10.677Z,8.16
2023-12-12T08:24:38.019Z,8.38
2023-12-12T08:27:05.033Z,8.30
2023-12-12T08:29:32.663Z,8.28
2023-12-12T08:31:59.868Z,7.84
2023-12-12T08:34:26.927Z,7.90
2023-12-12T08:36:53.960Z,8.27
2023-12-12T08:39:20.932Z,8.45
2023-12-12T08:41:47.927Z,8.71
2023-12-12T08:44:14.881Z,8.69
2023-12-12T08:46:45.327Z,8.81
2023-12-12T08:49:13.145Z,8.86
2023-12-12T08:51:40.755Z,8.68
2023-12-12T08:54:07.830Z,8.42
2023-12-12T08:56:34.843Z,8.02
2023-12-12T08:59:01.798Z,8.53
2023-12-12T09:01:28.886Z,8.65
2023-12-12T09:03:56.144Z,8.87
2023-12-12T09:06:23.522Z,8.77
2023-12-12T09:08:50.503Z,8.50
2023-12-12T09:11:17.427Z,8.90
2023-12-12T09:13:45.080Z,9.25
2023-12-12T09:16:12.562Z,9.46
2023-12-12T09:18:39.737Z,8.73
2023-12-12T09:21:08.211Z,8.49
2023-12-12T09:23:35.949Z,8.10
2023-12-12T09:26:03.114Z,8.10
2023-12-12T09:28:30.106Z,8.24
2023-12-12T09:30:57.284Z,7.96
2023-12-12T09:33:24.363Z,8.19
2023-12-12T09:35:51.504Z,8.06
2023-12-12T09:38:18.490Z,7.69
2023-12-12T09:40:45.473Z,7.66
2023-12-12T09:43:13.567Z,7.55
2023-12-12T09:45:45.217Z,7.97
2023-12-12T09:48:12.381Z,8.12
2023-12-12T10:20:52.791Z,5.26
2023-12-12T10:23:19.776Z,5.50
2023-12-12T10:25:51.529Z,5.98
2023-12-12T10:28:20.350Z,6.51
2023-12-12T10:30:52.592Z,6.80
2023-12-12T10:33:19.693Z,7.13
2023-12-12T10:35:46.809Z,7.21
2023-12-12T10:38:13.740Z,7.18
2023-12-12T10:40:40.744Z,7.29
2023-12-12T10:43:09.391Z,7.44
2023-12-12T10:45:38.425Z,7.33
2023-12-12T10:48:07.182Z,7.25
2023-12-12T10:50:35.728Z,7.46
2023-12-12T10:53:04.429Z,7.47
2023-12-12T10:55:32.909Z,7.24
2023-12-12T10:58:00.158Z,7.51
2023-12-12T11:00:27.941Z,7.70
2023-12-12T11:02:55.898Z,7.84
2023-12-12T11:05:25.471Z,8.15
2023-12-12T11:07:53.243Z,8.17
2023-12-12T11:10:21.437Z,8.40
2023-12-12T11:12:53.465Z,8.33
2023-12-12T11:15:21.595Z,8.40
2023-12-12T11:17:49.097Z,8.22
2023-12-12T11:20:17.205Z,8.42
2023-12-12T11:22:46.487Z,8.10
2023-12-12T11:25:21.709Z,8.31
2023-12-12T11:27:50.367Z,8.73
2023-12-12T11:30:19.274Z,8.67
2023-12-12T11:32:46.779Z,8.56
2023-12-12T11:35:27.401Z,8.73
2023-12-12T11:37:55.515Z,8.65
2023-12-12T11:40:24.024Z,8.69
2023-12-12T11:42:53.323Z,8.43
2023-12-12T11:45:34.014Z,8.41
2023-12-12T11:48:02.280Z,8.83
2023-12-12T11:50:29.336Z,9.00
2023-12-12T11:52:57.980Z,9.12
2023-12-12T11:55:36.655Z,9.25
2023-12-12T11:58:04.879Z,9.23
2023-12-12T12:00:32.723Z,9.34
2023-12-12T12:03:01.607Z,9.49
2023-12-12T12:05:29.103Z,9.64
2023-12-12T12:07:59.235Z,9.72
2023-12-12T12:10:26.827Z,9.52
2023-12-12T12:12:53.876Z,9.92
2023-12-12T12:15:20.978Z,9.88
2023-12-12T12:17:48.123Z,10.13
2023-12-12T12:20:15.366Z,10.18
2023-12-12T12:22:43.487Z,10.11
2023-12-12T12:25:10.836Z,10.04
2023-12-12T12:27:51.500Z,10.17
2023-12-12T12:30:19.343Z,10.20
2023-12-12T12:33:02.336Z,9.95
2023-12-12T12:35:29.619Z,9.82
2023-12-12T12:37:58.650Z,9.96
2023-12-12T12:40:33.289Z,9.97
2023-12-12T12:43:02.244Z,9.62
2023-12-12T12:45:29.299Z,9.82
2023-12-12T12:47:59.042Z,9.86
2023-12-12T12:50:26.314Z,9.49
2023-12-12T12:52:53.289Z,9.63
2023-12-12T12:55:20.620Z,9.83
2023-12-12T12:57:47.665Z,9.58
2023-12-12T13:00:15.008Z,9.12
2023-12-12T13:02:41.970Z,9.26
2023-12-12T13:05:09.427Z,9.37
2023-12-12T13:07:36.520Z,9.09
2023-12-12T13:10:03.793Z,9.40
2023-12-12T13:12:31.040Z,9.21
2023-12-12T13:14:58.145Z,9.25
2023-12-12T13:17:25.110Z,9.01
2023-12-12T13:19:52.247Z,8.76
2023-12-12T13:22:19.223Z,8.57
2023-12-12T13:24:46.420Z,8.29
2023-12-12T13:27:13.763Z,8.32
2023-12-12T13:29:40.586Z,8.21
2023-12-12T13:32:07.719Z,8.26
2023-12-12T13:34:35.033Z,8.27
2023-12-12T13:37:01.994Z,8.28
2023-12-12T13:39:28.861Z,8.01
2023-12-12T13:41:55.719Z,8.21
2023-12-12T13:44:22.763Z,8.10
2023-12-12T13:46:50.117Z,7.78
2023-12-12T13:49:17.074Z,7.92
2023-12-12T13:51:47.603Z,7.59
2023-12-12T13:54:15.308Z,7.36
2023-12-12T13:56:42.352Z,7.08
2023-12-12T13:59:09.397Z,6.90
2023-12-12T14:01:36.631Z,6.73
2023-12-12T14:04:04.085Z,6.78
2023-12-12T14:06:31.193Z,7.05
2023-12-12T14:08:58.084Z,7.05
2023-12-12T14:11:26.489Z,6.88
2023-12-12T14:13:53.737Z,6.74
2023-12-12T14:16:28.140Z,6.51
2023-12-12T14:18:57.238Z,6.48
2023-12-12T14:21:24.312Z,6.31
2023-12-12T14:23:51.195Z,6.15
2023-12-12T14:26:18.988Z,6.00
2023-12-12T14:28:50.117Z,6.21
2023-12-12T14:31:18.172Z,6.26
2023-12-12T14:33:45.626Z,5.89
2023-12-12T14:36:12.601Z,6.27
2023-12-12T14:38:39.479Z,5.59
2023-12-12T14:41:06.583Z,5.82
2023-12-12T14:43:33.770Z,6.22
2023-12-12T14:46:01.053Z,5.81
2023-12-12T14:48:29.919Z,5.58
2023-12-12T14:50:56.801Z,6.19
2023-12-12T14:53:23.691Z,5.66
2023-12-12T14:55:50.712Z,5.98
2023-12-12T14:58:17.900Z,6.14
2023-12-12T15:00:44.856Z,5.67
2023-12-12T15:03:11.826Z,4.99
2023-12-12T15:05:38.764Z,4.81
2023-12-12T15:08:05.703Z,4.81
2023-12-12T15:10:32.982Z,4.97
2023-12-12T15:12:59.880Z,4.82
2023-12-12T15:15:26.733Z,4.75
2023-12-12T15:17:54.228Z,4.73
2023-12-12T15:20:21.228Z,4.75
2023-12-12T15:22:48.403Z,4.87
2023-12-12T15:25:21.757Z,5.20
2023-12-12T15:28:22.900Z,5.10
2023-12-12T15:30:42.225Z,5.31
2023-12-12T15:33:09.173Z,5.28
2023-12-12T15:35:36.675Z,5.11
2023-12-12T15:38:03.578Z,5.11
2023-12-12T15:40:30.532Z,5.49
2023-12-12T15:42:57.358Z,5.64
2023-12-12T15:45:24.202Z,5.85
2023-12-12T15:47:51.068Z,5.70
2023-12-12T15:50:18.197Z,5.48
2023-12-12T15:52:45.247Z,5.52
2023-12-12T15:55:12.253Z,5.35
2023-12-12T15:57:39.061Z,5.00
2023-12-12T16:00:13.931Z,4.95
2023-12-12T16:02:42.224Z,4.91
2023-12-12T16:05:12.109Z,4.94
2023-12-12T16:07:39.486Z,4.79
2023-12-12T16:10:08.368Z,4.63
2023-12-12T16:12:38.855Z,4.73
2023-12-12T16:15:06.592Z,4.64
2023-12-12T16:17:36.734Z,4.67
2023-12-12T16:20:07.315Z,4.66
2023-12-12T16:22:35.392Z,4.64
2023-12-12T16:25:03.946Z,4.61
2023-12-12T16:27:30.966Z,4.56
2023-12-12T16:29:58.255Z,4.51
2023-12-12T16:32:25.178Z,4.49
2023-12-12T16:34:53.135Z,4.49
2023-12-12T16:37:20.285Z,4.51
2023-12-12T16:39:47.187Z,4.65
2023-12-12T16:42:16.075Z,5.00
2023-12-12T16:44:43.692Z,5.14
2023-12-12T16:47:10.902Z,5.21
2023-12-12T16:49:38.168Z,5.23
2023-12-12T16:52:05.336Z,5.05
2023-12-12T16:54:32.404Z,4.83
2023-12-12T16:57:00.187Z,4.60
2023-12-12T16:59:30.146Z,4.29
2023-12-12T17:01:58.194Z,3.99
2023-12-12T17:04:28.875Z,3.77
2023-12-12T17:06:56.277Z,3.84
2023-12-12T17:09:23.295Z,3.86
2023-12-12T17:11:50.477Z,4.12
2023-12-12T17:14:17.560Z,4.16
2023-12-12T17:16:45.364Z,4.25
2023-12-12T17:19:13.300Z,4.50
2023-12-12T17:21:40.346Z,4.69
2023-12-12T17:24:07.604Z,4.68
2023-12-12T17:26:34.593Z,4.69
2023-12-12T17:29:01.515Z,4.72
2023-12-12T17:31:28.754Z,4.84
2023-12-12T17:33:55.870Z,4.84
2023-12-12T17:36:25.403Z,4.81
2023-12-12T17:38:52.274Z,4.83
2023-12-12T17:41:19.101Z,4.94
2023-12-12T17:43:46.143Z,5.03
2023-12-12T17:46:13.722Z,5.09
2023-12-12T17:48:41.106Z,5.02
2023-12-12T17:51:08.144Z,4.90
2023-12-12T17:53:35.480Z,4.88
2023-12-12T17:56:02.819Z,4.87
2023-12-12T17:58:29.846Z,4.92
2023-12-12T18:00:57.004Z,4.84
2023-12-12T18:03:24.059Z,4.84
2023-12-12T18:05:52.795Z,4.88
2023-12-12T18:08:19.874Z,4.82
2023-12-12T18:10:46.905Z,4.82
2023-12-12T18:13:14.053Z,4.86
2023-12-12T18:15:41.048Z,4.83
2023-12-12T18:18:11.396Z,4.91
2023-12-12T18:20:38.880Z,4.97
2023-12-12T18:23:42.931Z,4.99
2023-12-12T18:26:32.406Z,5.14
2023-12-12T18:29:01.662Z,5.16
2023-12-12T18:31:31.086Z,5.16
2023-12-12T18:33:59.096Z,5.11
2023-12-12T18:36:26.304Z,5.07
2023-12-12T18:38:53.629Z,5.05
2023-12-12T18:41:24.262Z,4.88
2023-12-12T18:43:51.402Z,4.81
2023-12-12T18:46:18.775Z,4.84
2023-12-12T18:48:45.971Z,4.91
2023-12-12T18:51:13.144Z,4.90
2023-12-12T18:53:40.496Z,4.80
2023-12-12T18:56:09.399Z,4.76
2023-12-12T18:58:37.042Z,4.67
2023-12-12T19:01:05.991Z,4.64
2023-12-12T19:03:33.101Z,4.63
2023-12-12T19:06:00.351Z,4.53
2023-12-12T19:08:28.885Z,4.47
2023-12-12T19:10:56.024Z,4.46
2023-12-12T19:13:24.862Z,4.47
2023-12-12T19:15:51.863Z,4.65
2023-12-12T19:18:19.206Z,4.81
2023-12-12T19:20:47.236Z,4.86
2023-12-12T19:23:14.210Z,4.77
2023-12-12T19:25:41.196Z,4.71
2023-12-12T19:28:08.183Z,4.83
2023-12-12T19:30:38.806Z,4.99
2023-12-12T19:33:09.393Z,5.04
2023-12-12T19:35:39.052Z,4.93
2023-12-12T19:38:07.507Z,4.99
2023-12-12T19:40:54.653Z,5.04
2023-12-12T19:43:30.049Z,4.95
2023-12-12T19:45:57.020Z,4.98
2023-12-12T19:48:24.241Z,4.90
2023-12-12T19:50:52.167Z,4.67
2023-12-12T19:53:19.098Z,4.41
2023-12-12T19:55:46.191Z,4.04
2023-12-12T19:58:13.229Z,4.00
2023-12-12T20:00:40.601Z,4.18
2023-12-12T20:03:07.605Z,4.05
2023-12-12T20:05:34.780Z,4.22
2023-12-12T20:08:02.030Z,4.32
2023-12-12T20:10:34.156Z,4.26
2023-12-12T20:13:03.109Z,4.35
2023-12-12T20:15:32.451Z,4.31
2023-12-12T20:17:59.435Z,4.02
2023-12-12T20:20:26.616Z,3.65
2023-12-12T20:22:56.642Z,3.48
2023-12-12T20:25:25.592Z,3.58
2023-12-12T20:27:52.563Z,4.66
2023-12-12T20:30:19.498Z,5.02
2023-12-12T20:32:46.924Z,5.20
2023-12-12T20:35:14.423Z,5.32
2023-12-12T20:37:41.412Z,5.35
2023-12-12T20:40:10.038Z,5.40
2023-12-12T20:42:38.350Z,5.36
2023-12-12T20:45:07.656Z,5.25
2023-12-12T20:47:35.767Z,5.16
2023-12-12T20:50:06.282Z,4.77
2023-12-12T20:52:33.327Z,4.64
2023-12-12T20:55:02.041Z,4.55
2023-12-12T20:57:29.031Z,4.37
2023-12-12T20:59:56.130Z,3.63
2023-12-12T21:02:23.079Z,3.40
2023-12-12T21:04:52.885Z,3.34
2023-12-12T21:07:21.819Z,3.49
2023-12-12T21:09:48.787Z,3.65
2023-12-12T21:12:16.178Z,3.52
2023-12-12T21:14:43.089Z,3.49
2023-12-12T21:17:09.978Z,3.32
2023-12-12T21:19:37.132Z,3.27
2023-12-12T21:22:04.530Z,3.42
2023-12-12T21:24:31.395Z,3.18
2023-12-12T21:27:00.539Z,3.29
2023-12-12T21:29:27.441Z,3.32
2023-12-12T21:31:54.384Z,3.34
2023-12-12T21:34:21.440Z,3.70
2023-12-12T21:36:48.463Z,3.83
2023-12-12T21:39:15.348Z,3.73
2023-12-12T21:41:42.271Z,3.46
2023-12-12T21:44:09.112Z,3.53
2023-12-12T21:46:36.055Z,3.58
2023-12-12T21:49:03.081Z,3.66
2023-12-12T21:51:30.020Z,3.70
2023-12-12T21:53:56.892Z,3.83
2023-12-12T21:56:23.891Z,3.83
2023-12-12T21:58:50.817Z,3.64
2023-12-12T22:01:18.121Z,3.51
2023-12-12T22:03:45.139Z,3.66
2023-12-12T22:06:12.198Z,3.47
2023-12-12T22:08:39.457Z,3.78
2023-12-12T22:11:22.416Z,3.93
2023-12-12T22:13:50.029Z,3.93
2023-12-12T22:16:20.499Z,3.60
2023-12-12T22:18:47.511Z,3.54
2023-12-12T22:21:14.431Z,3.26
2023-12-12T22:23:41.324Z,3.27
2023-12-12T22:26:08.228Z,3.20
2023-12-12T22:28:35.123Z,3.60
2023-12-12T22:31:02.010Z,3.58
2023-12-12T22:33:28.874Z,3.51
2023-12-12T22:35:55.800Z,3.58
2023-12-12T22:38:23.827Z,3.74
2023-12-12T22:40:50.987Z,3.66
2023-12-12T22:43:17.948Z,4.15
2023-12-12T22:45:45.045Z,4.44
2023-12-12T22:48:12.019Z,4.47
2023-12-12T22:50:39.604Z,4.49
2023-12-12T22:53:07.348Z,4.21
2023-12-12T22:55:34.259Z,4.41
2023-12-12T22:58:01.164Z,4.46
2023-12-12T23:00:34.361Z,4.75
2023-12-12T23:03:01.382Z,4.84
2023-12-12T23:05:28.604Z,4.79
2023-12-12T23:07:55.738Z,4.96
2023-12-12T23:10:22.638Z,4.96
2023-12-12T23:12:49.604Z,4.79
2023-12-12T23:15:16.480Z,4.59
2023-12-12T23:17:43.414Z,4.64
2023-12-12T23:20:10.621Z,4.48
2023-12-12T23:22:37.518Z,4.14
2023-12-12T23:25:06.104Z,4.05
2023-12-12T23:27:33.183Z,4.08
2023-12-12T23:30:00.871Z,4.45
2023-12-12T23:32:27.679Z,4.77
2023-12-12T23:34:54.565Z,4.96
2023-12-12T23:37:24.144Z,5.04
2023-12-12T23:39:51.516Z,5.14
2023-12-12T23:42:18.758Z,5.17
2023-12-12T23:44:45.680Z,5.11
2023-12-12T23:47:12.701Z,5.19
2023-12-12T23:49:41.336Z,5.05
2023-12-12T23:52:11.254Z,4.78
2023-12-12T23:54:38.204Z,4.67
2023-12-12T23:57:05.241Z,4.41
2023-12-12T23:59:32.663Z,4.11
